sensor_id;sensor_type;location;lat;lon;timestamp;P1;durP1;ratioP1;P2;durP2;ratioP2
45077;SDS011;60508;42.622;25.416;2022-10-26T00:00:40;14.10;;;3.78;;
45077;SDS011;60508;42.622;25.416;2022-10-26T00:03:06;14.52;;;3.92;;
45077;SDS011;60508;42.622;25.416;2022-10-26T00:05:32;21.95;;;3.83;;
45077;SDS011;60508;42.622;25.416;2022-10-26T00:07:59;21.65;;;4.65;;
45077;SDS011;60508;42.622;25.416;2022-10-26T00:10:25;13.20;;;4.30;;
45077;SDS011;60508;42.622;25.416;2022-10-26T00:12:51;13.88;;;4.57;;
45077;SDS011;60508;42.622;25.416;2022-10-26T00:15:18;15.80;;;4.68;;
45077;SDS011;60508;42.622;25.416;2022-10-26T00:17:45;19.52;;;4.55;;
45077;SDS011;60508;42.622;25.416;2022-10-26T00:20:12;15.15;;;5.47;;
45077;SDS011;60508;42.622;25.416;2022-10-26T00:22:39;8.70;;;3.60;;
45077;SDS011;60508;42.622;25.416;2022-10-26T00:25:05;12.68;;;4.13;;
45077;SDS011;60508;42.622;25.416;2022-10-26T00:27:32;20.67;;;6.78;;
45077;SDS011;60508;42.622;25.416;2022-10-26T00:29:59;16.50;;;4.68;;
45077;SDS011;60508;42.622;25.416;2022-10-26T00:32:26;27.75;;;5.03;;
45077;SDS011;60508;42.622;25.416;2022-10-26T00:34:52;13.63;;;5.72;;
45077;SDS011;60508;42.622;25.416;2022-10-26T00:37:19;9.55;;;4.18;;
45077;SDS011;60508;42.622;25.416;2022-10-26T00:39:44;26.80;;;6.07;;
45077;SDS011;60508;42.622;25.416;2022-10-26T00:42:15;16.95;;;4.38;;
45077;SDS011;60508;42.622;25.416;2022-10-26T00:47:13;15.57;;;4.55;;
45077;SDS011;60508;42.622;25.416;2022-10-26T00:49:47;24.95;;;4.97;;
45077;SDS011;60508;42.622;25.416;2022-10-26T00:52:16;20.05;;;4.18;;
45077;SDS011;60508;42.622;25.416;2022-10-26T00:54:43;19.42;;;6.22;;
45077;SDS011;60508;42.622;25.416;2022-10-26T00:57:10;14.30;;;4.68;;
45077;SDS011;60508;42.622;25.416;2022-10-26T00:59:38;16.40;;;5.63;;
45077;SDS011;60508;42.622;25.416;2022-10-26T01:02:05;15.05;;;4.90;;
45077;SDS011;60508;42.622;25.416;2022-10-26T01:04:31;18.63;;;5.93;;
45077;SDS011;60508;42.622;25.416;2022-10-26T01:06:59;10.98;;;4.75;;
45077;SDS011;60508;42.622;25.416;2022-10-26T01:11:53;14.77;;;4.30;;
45077;SDS011;60508;42.622;25.416;2022-10-26T01:14:20;8.35;;;4.07;;
45077;SDS011;60508;42.622;25.416;2022-10-26T01:16:54;11.73;;;4.10;;
45077;SDS011;60508;42.622;25.416;2022-10-26T01:22:20;14.15;;;4.28;;
45077;SDS011;60508;42.622;25.416;2022-10-26T01:25:01;8.55;;;3.33;;
45077;SDS011;60508;42.622;25.416;2022-10-26T01:27:40;8.93;;;3.90;;
45077;SDS011;60508;42.622;25.416;2022-10-26T01:33:13;12.55;;;4.15;;
45077;SDS011;60508;42.622;25.416;2022-10-26T01:35:44;11.70;;;4.22;;
45077;SDS011;60508;42.622;25.416;2022-10-26T01:38:29;8.18;;;3.13;;
45077;SDS011;60508;42.622;25.416;2022-10-26T01:41:25;11.23;;;3.50;;
45077;SDS011;60508;42.622;25.416;2022-10-26T01:43:56;8.63;;;2.45;;
45077;SDS011;60508;42.622;25.416;2022-10-26T01:46:28;19.77;;;4.45;;
45077;SDS011;60508;42.622;25.416;2022-10-26T01:48:57;10.75;;;3.47;;
45077;SDS011;60508;42.622;25.416;2022-10-26T01:51:26;9.48;;;4.30;;
45077;SDS011;60508;42.622;25.416;2022-10-26T01:53:56;9.85;;;3.35;;
45077;SDS011;60508;42.622;25.416;2022-10-26T01:56:24;13.55;;;3.42;;
45077;SDS011;60508;42.622;25.416;2022-10-26T02:04:34;8.63;;;2.50;;
45077;SDS011;60508;42.622;25.416;2022-10-26T02:08:00;11.40;;;3.78;;
45077;SDS011;60508;42.622;25.416;2022-10-26T02:10:04;7.68;;;1.95;;
45077;SDS011;60508;42.622;25.416;2022-10-26T02:12:47;14.23;;;2.13;;
45077;SDS011;60508;42.622;25.416;2022-10-26T02:15:57;9.10;;;1.92;;
45077;SDS011;60508;42.622;25.416;2022-10-26T02:21:16;9.15;;;2.35;;
45077;SDS011;60508;42.622;25.416;2022-10-26T02:23:50;9.18;;;2.17;;
45077;SDS011;60508;42.622;25.416;2022-10-26T02:26:21;4.20;;;1.92;;
45077;SDS011;60508;42.622;25.416;2022-10-26T02:28:50;5.35;;;2.25;;
45077;SDS011;60508;42.622;25.416;2022-10-26T02:31:21;7.55;;;1.83;;
45077;SDS011;60508;42.622;25.416;2022-10-26T02:33:50;4.65;;;1.58;;
45077;SDS011;60508;42.622;25.416;2022-10-26T02:36:24;6.82;;;1.45;;
45077;SDS011;60508;42.622;25.416;2022-10-26T02:38:53;5.43;;;1.70;;
45077;SDS011;60508;42.622;25.416;2022-10-26T02:41:22;6.78;;;2.95;;
45077;SDS011;60508;42.622;25.416;2022-10-26T02:43:52;2.42;;;1.30;;
45077;SDS011;60508;42.622;25.416;2022-10-26T02:46:24;5.28;;;2.60;;
45077;SDS011;60508;42.622;25.416;2022-10-26T02:48:52;5.70;;;1.92;;
45077;SDS011;60508;42.622;25.416;2022-10-26T02:51:24;5.68;;;2.55;;
45077;SDS011;60508;42.622;25.416;2022-10-26T02:53:55;6.07;;;1.40;;
45077;SDS011;60508;42.622;25.416;2022-10-26T02:59:28;8.60;;;1.88;;
45077;SDS011;60508;42.622;25.416;2022-10-26T03:01:57;10.48;;;1.98;;
45077;SDS011;60508;42.622;25.416;2022-10-26T03:04:31;9.70;;;2.45;;
45077;SDS011;60508;42.622;25.416;2022-10-26T03:06:59;6.97;;;1.38;;
45077;SDS011;60508;42.622;25.416;2022-10-26T03:09:26;8.32;;;1.27;;
45077;SDS011;60508;42.622;25.416;2022-10-26T03:11:52;3.92;;;1.35;;
45077;SDS011;60508;42.622;25.416;2022-10-26T03:14:18;0.95;;;0.68;;
45077;SDS011;60508;42.622;25.416;2022-10-26T03:16:45;1.35;;;0.60;;
45077;SDS011;60508;42.622;25.416;2022-10-26T03:19:11;1.33;;;1.13;;
45077;SDS011;60508;42.622;25.416;2022-10-26T03:21:37;3.30;;;0.82;;
45077;SDS011;60508;42.622;25.416;2022-10-26T03:24:03;4.63;;;1.00;;
45077;SDS011;60508;42.622;25.416;2022-10-26T03:26:29;0.82;;;0.70;;
45077;SDS011;60508;42.622;25.416;2022-10-26T03:28:56;4.22;;;0.60;;
45077;SDS011;60508;42.622;25.416;2022-10-26T03:31:21;3.08;;;0.80;;
45077;SDS011;60508;42.622;25.416;2022-10-26T03:33:48;2.45;;;0.82;;
45077;SDS011;60508;42.622;25.416;2022-10-26T03:36:13;1.90;;;0.98;;
45077;SDS011;60508;42.622;25.416;2022-10-26T03:38:39;2.03;;;0.82;;
45077;SDS011;60508;42.622;25.416;2022-10-26T03:41:05;5.30;;;0.80;;
45077;SDS011;60508;42.622;25.416;2022-10-26T03:43:31;2.67;;;1.08;;
45077;SDS011;60508;42.622;25.416;2022-10-26T03:45:58;1.23;;;0.80;;
45077;SDS011;60508;42.622;25.416;2022-10-26T03:48:23;4.22;;;1.10;;
45077;SDS011;60508;42.622;25.416;2022-10-26T03:50:50;8.88;;;0.98;;
45077;SDS011;60508;42.622;25.416;2022-10-26T03:53:15;3.33;;;1.63;;
45077;SDS011;60508;42.622;25.416;2022-10-26T03:55:44;1.88;;;1.10;;
45077;SDS011;60508;42.622;25.416;2022-10-26T03:58:10;1.42;;;1.27;;
45077;SDS011;60508;42.622;25.416;2022-10-26T04:00:37;3.72;;;1.23;;
45077;SDS011;60508;42.622;25.416;2022-10-26T04:03:03;6.32;;;0.90;;
45077;SDS011;60508;42.622;25.416;2022-10-26T04:05:29;1.92;;;0.88;;
45077;SDS011;60508;42.622;25.416;2022-10-26T04:07:57;4.57;;;1.48;;
45077;SDS011;60508;42.622;25.416;2022-10-26T04:10:25;2.00;;;1.17;;
45077;SDS011;60508;42.622;25.416;2022-10-26T04:12:51;2.30;;;1.10;;
45077;SDS011;60508;42.622;25.416;2022-10-26T04:15:19;11.95;;;1.55;;
45077;SDS011;60508;42.622;25.416;2022-10-26T04:17:46;2.83;;;1.33;;
45077;SDS011;60508;42.622;25.416;2022-10-26T04:20:13;2.72;;;1.00;;
45077;SDS011;60508;42.622;25.416;2022-10-26T04:22:39;23.50;;;1.85;;
45077;SDS011;60508;42.622;25.416;2022-10-26T04:25:06;3.83;;;0.85;;
45077;SDS011;60508;42.622;25.416;2022-10-26T04:27:32;5.25;;;1.10;;
45077;SDS011;60508;42.622;25.416;2022-10-26T04:29:58;4.53;;;1.08;;
45077;SDS011;60508;42.622;25.416;2022-10-26T04:32:24;6.15;;;1.20;;
45077;SDS011;60508;42.622;25.416;2022-10-26T04:34:50;8.38;;;1.45;;
45077;SDS011;60508;42.622;25.416;2022-10-26T04:37:18;3.33;;;1.57;;
45077;SDS011;60508;42.622;25.416;2022-10-26T04:39:45;4.97;;;1.15;;
45077;SDS011;60508;42.622;25.416;2022-10-26T04:42:12;2.70;;;0.98;;
45077;SDS011;60508;42.622;25.416;2022-10-26T04:44:37;4.38;;;0.93;;
45077;SDS011;60508;42.622;25.416;2022-10-26T04:47:03;11.55;;;1.55;;
45077;SDS011;60508;42.622;25.416;2022-10-26T04:49:29;8.18;;;1.30;;
45077;SDS011;60508;42.622;25.416;2022-10-26T04:51:55;3.75;;;1.02;;
45077;SDS011;60508;42.622;25.416;2022-10-26T04:54:21;2.33;;;2.10;;
45077;SDS011;60508;42.622;25.416;2022-10-26T04:56:47;12.73;;;1.00;;
45077;SDS011;60508;42.622;25.416;2022-10-26T04:59:12;14.77;;;1.83;;
45077;SDS011;60508;42.622;25.416;2022-10-26T05:01:39;4.70;;;1.33;;
45077;SDS011;60508;42.622;25.416;2022-10-26T05:04:05;4.30;;;1.38;;
45077;SDS011;60508;42.622;25.416;2022-10-26T05:06:31;4.45;;;1.75;;
45077;SDS011;60508;42.622;25.416;2022-10-26T05:08:56;2.38;;;0.80;;
45077;SDS011;60508;42.622;25.416;2022-10-26T05:11:22;1.65;;;1.48;;
45077;SDS011;60508;42.622;25.416;2022-10-26T05:13:48;2.75;;;1.90;;
45077;SDS011;60508;42.622;25.416;2022-10-26T05:16:14;7.78;;;2.17;;
45077;SDS011;60508;42.622;25.416;2022-10-26T05:18:43;5.57;;;4.40;;
45077;SDS011;60508;42.622;25.416;2022-10-26T05:21:09;4.72;;;1.10;;
45077;SDS011;60508;42.622;25.416;2022-10-26T05:23:36;1.58;;;0.80;;
45077;SDS011;60508;42.622;25.416;2022-10-26T05:26:03;2.03;;;0.93;;
45077;SDS011;60508;42.622;25.416;2022-10-26T05:28:29;2.25;;;1.13;;
45077;SDS011;60508;42.622;25.416;2022-10-26T05:30:57;3.63;;;1.17;;
45077;SDS011;60508;42.622;25.416;2022-10-26T05:33:23;4.63;;;1.15;;
45077;SDS011;60508;42.622;25.416;2022-10-26T05:35:52;1.55;;;1.02;;
45077;SDS011;60508;42.622;25.416;2022-10-26T05:38:18;4.60;;;0.80;;
45077;SDS011;60508;42.622;25.416;2022-10-26T05:40:49;4.93;;;1.17;;
45077;SDS011;60508;42.622;25.416;2022-10-26T05:43:16;4.72;;;1.40;;
45077;SDS011;60508;42.622;25.416;2022-10-26T05:45:42;12.25;;;1.90;;
45077;SDS011;60508;42.622;25.416;2022-10-26T05:48:08;4.18;;;1.15;;
45077;SDS011;60508;42.622;25.416;2022-10-26T05:50:35;3.78;;;1.13;;
45077;SDS011;60508;42.622;25.416;2022-10-26T05:53:01;8.65;;;1.40;;
45077;SDS011;60508;42.622;25.416;2022-10-26T05:55:27;4.45;;;1.58;;
45077;SDS011;60508;42.622;25.416;2022-10-26T05:57:54;1.55;;;1.00;;
45077;SDS011;60508;42.622;25.416;2022-10-26T06:00:21;1.30;;;1.00;;
45077;SDS011;60508;42.622;25.416;2022-10-26T06:05:55;5.35;;;1.70;;
45077;SDS011;60508;42.622;25.416;2022-10-26T06:08:24;3.30;;;1.20;;
45077;SDS011;60508;42.622;25.416;2022-10-26T06:10:51;8.90;;;1.17;;
45077;SDS011;60508;42.622;25.416;2022-10-26T06:13:19;8.43;;;1.48;;
45077;SDS011;60508;42.622;25.416;2022-10-26T06:21:06;2.25;;;1.38;;
45077;SDS011;60508;42.622;25.416;2022-10-26T06:32:08;2.10;;;1.00;;
45077;SDS011;60508;42.622;25.416;2022-10-26T06:34:36;2.35;;;1.00;;
45077;SDS011;60508;42.622;25.416;2022-10-26T06:37:08;5.20;;;0.82;;
45077;SDS011;60508;42.622;25.416;2022-10-26T06:39:35;3.05;;;0.95;;
45077;SDS011;60508;42.622;25.416;2022-10-26T06:42:04;1.13;;;0.75;;
45077;SDS011;60508;42.622;25.416;2022-10-26T06:44:32;2.88;;;0.98;;
45077;SDS011;60508;42.622;25.416;2022-10-26T06:47:04;1.45;;;0.82;;
45077;SDS011;60508;42.622;25.416;2022-10-26T06:57:16;2.60;;;0.93;;
45077;SDS011;60508;42.622;25.416;2022-10-26T06:59:48;4.93;;;0.95;;
45077;SDS011;60508;42.622;25.416;2022-10-26T07:02:18;10.13;;;0.90;;
45077;SDS011;60508;42.622;25.416;2022-10-26T07:04:45;3.38;;;0.90;;
45077;SDS011;60508;42.622;25.416;2022-10-26T07:07:21;2.10;;;0.63;;
45077;SDS011;60508;42.622;25.416;2022-10-26T07:09:49;1.73;;;0.70;;
45077;SDS011;60508;42.622;25.416;2022-10-26T07:12:15;6.47;;;1.05;;
45077;SDS011;60508;42.622;25.416;2022-10-26T07:14:41;4.38;;;0.82;;
45077;SDS011;60508;42.622;25.416;2022-10-26T07:17:08;6.18;;;0.63;;
45077;SDS011;60508;42.622;25.416;2022-10-26T07:19:35;3.67;;;0.70;;
45077;SDS011;60508;42.622;25.416;2022-10-26T07:22:00;1.63;;;0.95;;
45077;SDS011;60508;42.622;25.416;2022-10-26T07:24:27;3.38;;;0.73;;
45077;SDS011;60508;42.622;25.416;2022-10-26T07:26:55;4.57;;;1.00;;
45077;SDS011;60508;42.622;25.416;2022-10-26T07:29:23;2.85;;;1.00;;
45077;SDS011;60508;42.622;25.416;2022-10-26T07:31:50;1.13;;;0.75;;
45077;SDS011;60508;42.622;25.416;2022-10-26T07:34:16;6.95;;;1.00;;
45077;SDS011;60508;42.622;25.416;2022-10-26T07:36:42;4.70;;;1.33;;
45077;SDS011;60508;42.622;25.416;2022-10-26T07:39:09;5.68;;;2.25;;
45077;SDS011;60508;42.622;25.416;2022-10-26T07:41:35;2.13;;;0.70;;
45077;SDS011;60508;42.622;25.416;2022-10-26T07:44:01;2.72;;;0.90;;
45077;SDS011;60508;42.622;25.416;2022-10-26T07:46:27;1.67;;;0.70;;
45077;SDS011;60508;42.622;25.416;2022-10-26T07:48:53;2.72;;;0.85;;
45077;SDS011;60508;42.622;25.416;2022-10-26T07:51:19;3.03;;;1.58;;
45077;SDS011;60508;42.622;25.416;2022-10-26T07:53:46;2.70;;;0.73;;
45077;SDS011;60508;42.622;25.416;2022-10-26T07:56:12;1.65;;;0.90;;
45077;SDS011;60508;42.622;25.416;2022-10-26T07:58:37;5.88;;;1.13;;
45077;SDS011;60508;42.622;25.416;2022-10-26T08:01:04;2.05;;;0.70;;
45077;SDS011;60508;42.622;25.416;2022-10-26T08:03:31;1.85;;;0.80;;
45077;SDS011;60508;42.622;25.416;2022-10-26T08:05:58;3.20;;;0.95;;
45077;SDS011;60508;42.622;25.416;2022-10-26T08:08:24;4.45;;;0.95;;
45077;SDS011;60508;42.622;25.416;2022-10-26T08:10:50;1.75;;;0.90;;
45077;SDS011;60508;42.622;25.416;2022-10-26T08:13:16;4.28;;;1.20;;
45077;SDS011;60508;42.622;25.416;2022-10-26T08:15:43;2.47;;;0.60;;
45077;SDS011;60508;42.622;25.416;2022-10-26T08:18:09;3.35;;;0.88;;
45077;SDS011;60508;42.622;25.416;2022-10-26T08:20:35;3.42;;;0.57;;
45077;SDS011;60508;42.622;25.416;2022-10-26T08:23:01;3.00;;;1.20;;
45077;SDS011;60508;42.622;25.416;2022-10-26T08:25:31;2.47;;;0.50;;
45077;SDS011;60508;42.622;25.416;2022-10-26T08:28:00;1.92;;;0.60;;
45077;SDS011;60508;42.622;25.416;2022-10-26T08:30:31;3.78;;;0.52;;
45077;SDS011;60508;42.622;25.416;2022-10-26T08:32:58;5.43;;;0.80;;
45077;SDS011;60508;42.622;25.416;2022-10-26T08:35:29;6.70;;;0.68;;
45077;SDS011;60508;42.622;25.416;2022-10-26T08:37:56;5.88;;;0.30;;
45077;SDS011;60508;42.622;25.416;2022-10-26T08:40:24;5.80;;;1.00;;
45077;SDS011;60508;42.622;25.416;2022-10-26T08:45:43;1.27;;;0.73;;
45077;SDS011;60508;42.622;25.416;2022-10-26T08:48:15;2.83;;;1.08;;
45077;SDS011;60508;42.622;25.416;2022-10-26T08:50:48;5.35;;;0.40;;
45077;SDS011;60508;42.622;25.416;2022-10-26T08:59:02;1.52;;;0.30;;
45077;SDS011;60508;42.622;25.416;2022-10-26T09:01:37;0.52;;;0.30;;
45077;SDS011;60508;42.622;25.416;2022-10-26T09:04:02;0.90;;;0.30;;
45077;SDS011;60508;42.622;25.416;2022-10-26T09:06:44;0.40;;;0.28;;
45077;SDS011;60508;42.622;25.416;2022-10-26T09:25:59;3.70;;;0.60;;
45077;SDS011;60508;42.622;25.416;2022-10-26T09:28:33;0.32;;;0.32;;
45077;SDS011;60508;42.622;25.416;2022-10-26T09:31:02;0.68;;;0.15;;
45077;SDS011;60508;42.622;25.416;2022-10-26T09:33:30;3.20;;;0.45;;
45077;SDS011;60508;42.622;25.416;2022-10-26T09:36:02;2.20;;;0.43;;
45077;SDS011;60508;42.622;25.416;2022-10-26T09:38:42;1.25;;;0.22;;
45077;SDS011;60508;42.622;25.416;2022-10-26T09:41:36;5.47;;;0.30;;
45077;SDS011;60508;42.622;25.416;2022-10-26T09:46:52;1.48;;;0.30;;
45077;SDS011;60508;42.622;25.416;2022-10-26T09:49:20;0.50;;;0.20;;
45077;SDS011;60508;42.622;25.416;2022-10-26T09:51:54;0.20;;;0.20;;
45077;SDS011;60508;42.622;25.416;2022-10-26T09:54:21;2.85;;;0.30;;
45077;SDS011;60508;42.622;25.416;2022-10-26T09:56:49;1.00;;;0.30;;
45077;SDS011;60508;42.622;25.416;2022-10-26T09:59:17;0.40;;;0.20;;
45077;SDS011;60508;42.622;25.416;2022-10-26T10:01:46;0.40;;;0.30;;
45077;SDS011;60508;42.622;25.416;2022-10-26T10:06:39;0.82;;;0.30;;
45077;SDS011;60508;42.622;25.416;2022-10-26T10:14:26;0.28;;;0.20;;
45077;SDS011;60508;42.622;25.416;2022-10-26T10:16:54;2.33;;;0.35;;
45077;SDS011;60508;42.622;25.416;2022-10-26T10:21:51;3.63;;;0.30;;
45077;SDS011;60508;42.622;25.416;2022-10-26T10:24:24;1.23;;;0.50;;
45077;SDS011;60508;42.622;25.416;2022-10-26T10:29:31;0.40;;;0.40;;
45077;SDS011;60508;42.622;25.416;2022-10-26T10:31:59;1.02;;;0.40;;
45077;SDS011;60508;42.622;25.416;2022-10-26T10:34:30;3.67;;;0.45;;
45077;SDS011;60508;42.622;25.416;2022-10-26T10:36:57;4.72;;;1.13;;
45077;SDS011;60508;42.622;25.416;2022-10-26T10:41:57;4.00;;;3.55;;
45077;SDS011;60508;42.622;25.416;2022-10-26T10:44:24;4.80;;;4.13;;
45077;SDS011;60508;42.622;25.416;2022-10-26T10:47:02;3.13;;;1.92;;
45077;SDS011;60508;42.622;25.416;2022-10-26T10:49:30;3.67;;;1.30;;
45077;SDS011;60508;42.622;25.416;2022-10-26T10:51:57;2.23;;;2.07;;
45077;SDS011;60508;42.622;25.416;2022-10-26T10:56:54;3.10;;;1.02;;
45077;SDS011;60508;42.622;25.416;2022-10-26T10:59:32;1.50;;;0.60;;
45077;SDS011;60508;42.622;25.416;2022-10-26T11:07:50;2.10;;;0.50;;
45077;SDS011;60508;42.622;25.416;2022-10-26T11:10:17;1.13;;;1.02;;
45077;SDS011;60508;42.622;25.416;2022-10-26T11:12:55;8.68;;;4.28;;
45077;SDS011;60508;42.622;25.416;2022-10-26T11:15:25;6.40;;;3.70;;
45077;SDS011;60508;42.622;25.416;2022-10-26T11:18:07;11.35;;;10.25;;
45077;SDS011;60508;42.622;25.416;2022-10-26T11:20:41;5.47;;;5.03;;
45077;SDS011;60508;42.622;25.416;2022-10-26T11:23:57;4.13;;;3.78;;
45077;SDS011;60508;42.622;25.416;2022-10-26T11:26:12;1.33;;;0.85;;
45077;SDS011;60508;42.622;25.416;2022-10-26T11:28:58;3.13;;;0.73;;
45077;SDS011;60508;42.622;25.416;2022-10-26T11:31:32;4.88;;;3.83;;
45077;SDS011;60508;42.622;25.416;2022-10-26T11:34:13;2.65;;;1.35;;
45077;SDS011;60508;42.622;25.416;2022-10-26T11:39:21;4.55;;;2.85;;
45077;SDS011;60508;42.622;25.416;2022-10-26T11:42:30;4.15;;;2.42;;
45077;SDS011;60508;42.622;25.416;2022-10-26T11:50:24;2.20;;;1.90;;
45077;SDS011;60508;42.622;25.416;2022-10-26T11:52:57;1.40;;;0.57;;
45077;SDS011;60508;42.622;25.416;2022-10-26T11:55:25;1.98;;;0.80;;
45077;SDS011;60508;42.622;25.416;2022-10-26T11:57:51;7.70;;;1.00;;
45077;SDS011;60508;42.622;25.416;2022-10-26T12:00:19;1.58;;;0.55;;
45077;SDS011;60508;42.622;25.416;2022-10-26T12:02:51;1.95;;;1.10;;
45077;SDS011;60508;42.622;25.416;2022-10-26T12:05:32;4.70;;;0.50;;
45077;SDS011;60508;42.622;25.416;2022-10-26T12:08:12;1.83;;;0.45;;
45077;SDS011;60508;42.622;25.416;2022-10-26T12:10:45;3.22;;;0.70;;
45077;SDS011;60508;42.622;25.416;2022-10-26T12:18:40;0.93;;;0.40;;
45077;SDS011;60508;42.622;25.416;2022-10-26T12:21:13;2.60;;;0.43;;
45077;SDS011;60508;42.622;25.416;2022-10-26T12:23:53;3.33;;;0.60;;
45077;SDS011;60508;42.622;25.416;2022-10-26T12:34:03;2.78;;;0.50;;
45077;SDS011;60508;42.622;25.416;2022-10-26T12:39:27;1.20;;;0.45;;
45077;SDS011;60508;42.622;25.416;2022-10-26T12:44:35;1.40;;;0.50;;
45077;SDS011;60508;42.622;25.416;2022-10-26T12:50:01;1.30;;;0.30;;
45077;SDS011;60508;42.622;25.416;2022-10-26T12:52:45;1.27;;;0.35;;
45077;SDS011;60508;42.622;25.416;2022-10-26T12:55:32;1.02;;;0.77;;
45077;SDS011;60508;42.622;25.416;2022-10-26T13:01:29;1.50;;;0.30;;
45077;SDS011;60508;42.622;25.416;2022-10-26T13:06:58;3.03;;;0.95;;
45077;SDS011;60508;42.622;25.416;2022-10-26T13:09:34;0.98;;;0.40;;
45077;SDS011;60508;42.622;25.416;2022-10-26T13:12:02;1.90;;;0.35;;
45077;SDS011;60508;42.622;25.416;2022-10-26T13:14:30;7.95;;;0.45;;
45077;SDS011;60508;42.622;25.416;2022-10-26T13:16:58;5.80;;;0.50;;
45077;SDS011;60508;42.622;25.416;2022-10-26T13:19:41;1.40;;;0.52;;
45077;SDS011;60508;42.622;25.416;2022-10-26T13:22:13;5.47;;;0.40;;
45077;SDS011;60508;42.622;25.416;2022-10-26T13:24:46;5.63;;;1.38;;
45077;SDS011;60508;42.622;25.416;2022-10-26T13:32:40;2.17;;;1.95;;
45077;SDS011;60508;42.622;25.416;2022-10-26T13:35:12;2.10;;;1.60;;
45077;SDS011;60508;42.622;25.416;2022-10-26T13:40:15;5.68;;;2.65;;
45077;SDS011;60508;42.622;25.416;2022-10-26T13:43:18;5.18;;;1.63;;
45077;SDS011;60508;42.622;25.416;2022-10-26T13:45:45;8.18;;;2.45;;
45077;SDS011;60508;42.622;25.416;2022-10-26T13:48:41;7.63;;;2.78;;
45077;SDS011;60508;42.622;25.416;2022-10-26T13:51:18;8.35;;;2.65;;
45077;SDS011;60508;42.622;25.416;2022-10-26T13:53:56;9.02;;;3.40;;
45077;SDS011;60508;42.622;25.416;2022-10-26T13:56:29;9.82;;;3.08;;
45077;SDS011;60508;42.622;25.416;2022-10-26T13:59:09;5.22;;;2.42;;
45077;SDS011;60508;42.622;25.416;2022-10-26T14:01:38;7.20;;;2.20;;
45077;SDS011;60508;42.622;25.416;2022-10-26T14:04:37;13.50;;;3.28;;
45077;SDS011;60508;42.622;25.416;2022-10-26T14:06:56;3.65;;;2.50;;
45077;SDS011;60508;42.622;25.416;2022-10-26T14:09:22;17.48;;;2.78;;
45077;SDS011;60508;42.622;25.416;2022-10-26T14:11:55;13.52;;;4.63;;
45077;SDS011;60508;42.622;25.416;2022-10-26T14:14:31;9.63;;;3.45;;
45077;SDS011;60508;42.622;25.416;2022-10-26T14:17:00;12.50;;;2.55;;
45077;SDS011;60508;42.622;25.416;2022-10-26T14:19:28;8.50;;;3.95;;
45077;SDS011;60508;42.622;25.416;2022-10-26T14:21:55;28.65;;;4.22;;
45077;SDS011;60508;42.622;25.416;2022-10-26T14:24:23;11.63;;;2.42;;
45077;SDS011;60508;42.622;25.416;2022-10-26T14:26:53;7.72;;;2.03;;
45077;SDS011;60508;42.622;25.416;2022-10-26T14:29:20;5.20;;;1.83;;
45077;SDS011;60508;42.622;25.416;2022-10-26T14:31:48;9.40;;;2.10;;
45077;SDS011;60508;42.622;25.416;2022-10-26T14:34:15;12.93;;;3.10;;
45077;SDS011;60508;42.622;25.416;2022-10-26T14:41:58;9.40;;;2.28;;
45077;SDS011;60508;42.622;25.416;2022-10-26T14:44:27;9.23;;;2.63;;
45077;SDS011;60508;42.622;25.416;2022-10-26T14:46:54;7.95;;;3.08;;
45077;SDS011;60508;42.622;25.416;2022-10-26T14:49:22;5.57;;;2.55;;
45077;SDS011;60508;42.622;25.416;2022-10-26T14:51:57;11.45;;;2.53;;
45077;SDS011;60508;42.622;25.416;2022-10-26T14:54:26;10.15;;;2.35;;
45077;SDS011;60508;42.622;25.416;2022-10-26T14:56:53;10.67;;;2.03;;
45077;SDS011;60508;42.622;25.416;2022-10-26T15:01:49;5.05;;;2.05;;
45077;SDS011;60508;42.622;25.416;2022-10-26T15:04:27;8.48;;;2.17;;
45077;SDS011;60508;42.622;25.416;2022-10-26T15:07:01;6.18;;;2.88;;
45077;SDS011;60508;42.622;25.416;2022-10-26T15:12:18;23.85;;;3.58;;
45077;SDS011;60508;42.622;25.416;2022-10-26T15:14:45;24.85;;;3.20;;
45077;SDS011;60508;42.622;25.416;2022-10-26T15:17:13;13.55;;;3.20;;
45077;SDS011;60508;42.622;25.416;2022-10-26T15:19:47;6.10;;;3.20;;
45077;SDS011;60508;42.622;25.416;2022-10-26T15:22:20;6.70;;;2.10;;
45077;SDS011;60508;42.622;25.416;2022-10-26T15:24:49;3.72;;;2.70;;
45077;SDS011;60508;42.622;25.416;2022-10-26T15:27:20;7.13;;;2.45;;
45077;SDS011;60508;42.622;25.416;2022-10-26T15:29:48;12.35;;;2.97;;
45077;SDS011;60508;42.622;25.416;2022-10-26T15:32:20;12.35;;;2.83;;
45077;SDS011;60508;42.622;25.416;2022-10-26T15:35:05;9.95;;;2.72;;
45077;SDS011;60508;42.622;25.416;2022-10-26T15:40:04;8.30;;;3.33;;
45077;SDS011;60508;42.622;25.416;2022-10-26T15:42:31;5.68;;;3.90;;
45077;SDS011;60508;42.622;25.416;2022-10-26T15:45:01;15.02;;;5.97;;
45077;SDS011;60508;42.622;25.416;2022-10-26T15:47:30;16.10;;;4.53;;
45077;SDS011;60508;42.622;25.416;2022-10-26T15:49:58;10.60;;;3.92;;
45077;SDS011;60508;42.622;25.416;2022-10-26T15:52:23;11.70;;;4.13;;
45077;SDS011;60508;42.622;25.416;2022-10-26T15:54:50;6.78;;;5.18;;
45077;SDS011;60508;42.622;25.416;2022-10-26T15:57:16;13.40;;;6.80;;
45077;SDS011;60508;42.622;25.416;2022-10-26T15:59:42;21.42;;;8.48;;
45077;SDS011;60508;42.622;25.416;2022-10-26T16:02:12;10.65;;;6.63;;
45077;SDS011;60508;42.622;25.416;2022-10-26T16:04:39;13.07;;;6.07;;
45077;SDS011;60508;42.622;25.416;2022-10-26T16:07:12;11.77;;;5.82;;
45077;SDS011;60508;42.622;25.416;2022-10-26T16:09:41;9.63;;;4.07;;
45077;SDS011;60508;42.622;25.416;2022-10-26T16:12:11;12.27;;;4.70;;
45077;SDS011;60508;42.622;25.416;2022-10-26T16:14:38;11.20;;;3.70;;
45077;SDS011;60508;42.622;25.416;2022-10-26T16:17:05;12.75;;;2.88;;
45077;SDS011;60508;42.622;25.416;2022-10-26T16:19:32;7.40;;;2.75;;
45077;SDS011;60508;42.622;25.416;2022-10-26T16:21:59;8.85;;;3.15;;
45077;SDS011;60508;42.622;25.416;2022-10-26T16:24:28;6.80;;;3.67;;
45077;SDS011;60508;42.622;25.416;2022-10-26T16:26:55;3.50;;;2.60;;
45077;SDS011;60508;42.622;25.416;2022-10-26T16:29:22;7.68;;;3.05;;
45077;SDS011;60508;42.622;25.416;2022-10-26T16:31:48;6.28;;;2.67;;
45077;SDS011;60508;42.622;25.416;2022-10-26T16:34:14;10.63;;;2.70;;
45077;SDS011;60508;42.622;25.416;2022-10-26T16:36:40;4.00;;;2.67;;
45077;SDS011;60508;42.622;25.416;2022-10-26T16:39:06;4.63;;;1.77;;
45077;SDS011;60508;42.622;25.416;2022-10-26T16:41:34;11.20;;;2.15;;
45077;SDS011;60508;42.622;25.416;2022-10-26T16:44:01;6.18;;;2.25;;
45077;SDS011;60508;42.622;25.416;2022-10-26T16:46:27;4.53;;;2.40;;
45077;SDS011;60508;42.622;25.416;2022-10-26T16:48:53;5.68;;;3.67;;
45077;SDS011;60508;42.622;25.416;2022-10-26T16:51:23;8.02;;;2.08;;
45077;SDS011;60508;42.622;25.416;2022-10-26T16:53:52;10.38;;;2.40;;
45077;SDS011;60508;42.622;25.416;2022-10-26T16:56:20;5.65;;;2.08;;
45077;SDS011;60508;42.622;25.416;2022-10-26T16:58:53;8.00;;;2.58;;
45077;SDS011;60508;42.622;25.416;2022-10-26T17:01:20;9.77;;;2.13;;
45077;SDS011;60508;42.622;25.416;2022-10-26T17:03:47;4.72;;;1.70;;
45077;SDS011;60508;42.622;25.416;2022-10-26T17:06:15;3.58;;;1.70;;
45077;SDS011;60508;42.622;25.416;2022-10-26T17:08:42;5.20;;;2.45;;
45077;SDS011;60508;42.622;25.416;2022-10-26T17:11:09;8.13;;;2.00;;
45077;SDS011;60508;42.622;25.416;2022-10-26T17:13:37;6.03;;;1.80;;
45077;SDS011;60508;42.622;25.416;2022-10-26T17:16:05;3.58;;;1.30;;
45077;SDS011;60508;42.622;25.416;2022-10-26T17:18:32;5.63;;;1.85;;
45077;SDS011;60508;42.622;25.416;2022-10-26T17:20:58;21.48;;;2.38;;